sensor_id;sensor_type;location;lat;lon;timestamp;pressure;altitude;pressure_sealevel;temperature;humidity
74680;BME280;63211;48.548;2.704;2022-09-09T00:01:04;100268.84;;;23.17;63.46
74680;BME280;63211;48.548;2.704;2022-09-09T00:03:36;100263.34;;;23.17;63.29
74680;BME280;63211;48.548;2.704;2022-09-09T00:06:12;100266.34;;;23.15;62.77
74680;BME280;63211;48.548;2.704;2022-09-09T00:08:46;100269.09;;;23.15;62.80
74680;BME280;63211;48.548;2.704;2022-09-09T00:11:24;100259.75;;;23.11;62.94
74680;BME280;63211;48.548;2.704;2022-09-09T00:13:54;100264.41;;;23.11;63.08
74680;BME280;63211;48.548;2.704;2022-09-09T00:16:25;100262.75;;;23.10;62.72
74680;BME280;63211;48.548;2.704;2022-09-09T00:19:00;100264.69;;;23.09;62.58
74680;BME280;63211;48.548;2.704;2022-09-09T00:21:32;100263.03;;;23.08;62.91
74680;BME280;63211;48.548;2.704;2022-09-09T00:24:04;100258.09;;;23.05;62.64
74680;BME280;63211;48.548;2.704;2022-09-09T00:26:39;100260.00;;;23.05;63.18
74680;BME280;63211;48.548;2.704;2022-09-09T00:29:14;100254.22;;;23.01;63.35
74680;BME280;63211;48.548;2.704;2022-09-09T00:31:44;100260.28;;;23.03;62.45
74680;BME280;63211;48.548;2.704;2022-09-09T00:34:14;100261.38;;;23.02;62.76
74680;BME280;63211;48.548;2.704;2022-09-09T00:36:43;100264.38;;;23.01;62.77
74680;BME280;63211;48.548;2.704;2022-09-09T00:39:23;100257.22;;;23.00;63.18
74680;BME280;63211;48.548;2.704;2022-09-09T00:41:59;100250.91;;;22.99;62.68
74680;BME280;63211;48.548;2.704;2022-09-09T00:44:36;100252.28;;;22.96;62.27
74680;BME280;63211;48.548;2.704;2022-09-09T00:47:12;100252.28;;;22.96;63.05
74680;BME280;63211;48.548;2.704;2022-09-09T00:49:50;100256.09;;;22.95;62.31
74680;BME280;63211;48.548;2.704;2022-09-09T00:52:32;100244.31;;;22.95;62.72
74680;BME280;63211;48.548;2.704;2022-09-09T00:55:07;100248.41;;;22.92;62.15
74680;BME280;63211;48.548;2.704;2022-09-09T00:57:38;100245.91;;;22.91;62.57
74680;BME280;63211;48.548;2.704;2022-09-09T01:00:21;100235.19;;;22.89;62.71
74680;BME280;63211;48.548;2.704;2022-09-09T01:02:55;100238.22;;;22.88;62.42
74680;BME280;63211;48.548;2.704;2022-09-09T01:05:29;100235.47;;;22.88;62.57
74680;BME280;63211;48.548;2.704;2022-09-09T01:08:00;100236.84;;;22.85;62.21
74680;BME280;63211;48.548;2.704;2022-09-09T01:10:35;100230.53;;;22.85;62.28
74680;BME280;63211;48.548;2.704;2022-09-09T01:13:04;100241.50;;;22.85;62.22
74680;BME280;63211;48.548;2.704;2022-09-09T01:15:37;100236.28;;;22.83;62.53
74680;BME280;63211;48.548;2.704;2022-09-09T01:18:10;100237.38;;;22.82;62.67
74680;BME280;63211;48.548;2.704;2022-09-09T01:20:45;100235.72;;;22.81;62.36
74680;BME280;63211;48.548;2.704;2022-09-09T01:23:36;100234.06;;;22.80;62.52
74680;BME280;63211;48.548;2.704;2022-09-09T01:26:13;100233.25;;;22.80;62.28
74680;BME280;63211;48.548;2.704;2022-09-09T01:28:44;100228.84;;;22.79;62.05
74680;BME280;63211;48.548;2.704;2022-09-09T01:31:15;100232.09;;;22.76;62.40
74680;BME280;63211;48.548;2.704;2022-09-09T01:33:43;100223.84;;;22.76;62.43
74680;BME280;63211;48.548;2.704;2022-09-09T01:36:13;100227.44;;;22.76;62.21
74680;BME280;63211;48.548;2.704;2022-09-09T01:38:43;100226.88;;;22.74;62.66
74680;BME280;63211;48.548;2.704;2022-09-09T01:41:11;100227.97;;;22.73;62.20
74680;BME280;63211;48.548;2.704;2022-09-09T01:43:37;100224.38;;;22.73;62.72
74680;BME280;63211;48.548;2.704;2022-09-09T01:46:04;100229.03;;;22.72;62.50
74680;BME280;63211;48.548;2.704;2022-09-09T01:55:15;100227.09;;;22.68;62.50
74680;BME280;63211;48.548;2.704;2022-09-09T01:57:52;100236.72;;;22.70;62.32
74680;BME280;63211;48.548;2.704;2022-09-09T02:00:22;100232.84;;;22.66;62.29
74680;BME280;63211;48.548;2.704;2022-09-09T02:03:00;100232.00;;;22.66;62.58
74680;BME280;63211;48.548;2.704;2022-09-09T02:05:36;100228.47;;;22.65;62.30
74680;BME280;63211;48.548;2.704;2022-09-09T02:08:07;100226.00;;;22.63;62.56
74680;BME280;63211;48.548;2.704;2022-09-09T02:10:39;100226.00;;;22.63;62.23
74680;BME280;63211;48.548;2.704;2022-09-09T02:13:10;100222.44;;;22.63;62.81
74680;BME280;63211;48.548;2.704;2022-09-09T02:15:39;100216.94;;;22.63;62.34
74680;BME280;63211;48.548;2.704;2022-09-09T02:18:10;100217.19;;;22.61;62.32
74680;BME280;63211;48.548;2.704;2022-09-09T02:20:39;100214.72;;;22.60;62.58
74680;BME280;63211;48.548;2.704;2022-09-09T02:23:07;100215.81;;;22.59;62.41
74680;BME280;63211;48.548;2.704;2022-09-09T02:25:36;100202.34;;;22.57;62.62
74680;BME280;63211;48.548;2.704;2022-09-09T02:28:05;100199.59;;;22.57;62.24
74680;BME280;63211;48.548;2.704;2022-09-09T02:30:35;100212.50;;;22.57;62.38
74680;BME280;63211;48.548;2.704;2022-09-09T02:33:04;100208.94;;;22.56;62.58
74680;BME280;63211;48.548;2.704;2022-09-09T02:35:34;100219.06;;;22.56;62.54
74680;BME280;63211;48.548;2.704;2022-09-09T02:38:07;100220.16;;;22.55;62.43
74680;BME280;63211;48.548;2.704;2022-09-09T02:40:34;100215.78;;;22.54;62.56
74680;BME280;63211;48.548;2.704;2022-09-09T02:43:01;100220.44;;;22.53;62.45
74680;BME280;63211;48.548;2.704;2022-09-09T02:45:33;100220.44;;;22.53;62.36
74680;BME280;63211;48.548;2.704;2022-09-09T02:48:10;100220.69;;;22.52;62.19
74680;BME280;63211;48.548;2.704;2022-09-09T02:50:44;100217.94;;;22.52;62.17
74680;BME280;63211;48.548;2.704;2022-09-09T02:53:16;100217.38;;;22.50;62.22
74680;BME280;63211;48.548;2.704;2022-09-09T02:55:47;100216.28;;;22.51;62.08
74680;BME280;63211;48.548;2.704;2022-09-09T02:58:15;100223.69;;;22.50;62.34
74680;BME280;63211;48.548;2.704;2022-09-09T03:00:44;100216.56;;;22.49;62.50
74680;BME280;63211;48.548;2.704;2022-09-09T03:03:13;100216.81;;;22.48;61.97
74680;BME280;63211;48.548;2.704;2022-09-09T03:05:41;100222.31;;;22.48;62.38
74680;BME280;63211;48.548;2.704;2022-09-09T03:08:08;100215.16;;;22.47;62.40
74680;BME280;63211;48.548;2.704;2022-09-09T03:10:35;100219.81;;;22.46;62.01
74680;BME280;63211;48.548;2.704;2022-09-09T03:13:02;100215.44;;;22.45;62.09
74680;BME280;63211;48.548;2.704;2022-09-09T03:15:29;100217.34;;;22.45;62.25
74680;BME280;63211;48.548;2.704;2022-09-09T03:17:56;100213.81;;;22.44;62.29
74680;BME280;63211;48.548;2.704;2022-09-09T03:20:25;100220.38;;;22.43;62.09
74680;BME280;63211;48.548;2.704;2022-09-09T03:22:52;100220.38;;;22.43;61.74
74680;BME280;63211;48.548;2.704;2022-09-09T03:25:20;100227.78;;;22.43;61.93
74680;BME280;63211;48.548;2.704;2022-09-09T03:27:49;100216.78;;;22.38;62.38
74680;BME280;63211;48.548;2.704;2022-09-09T03:30:18;100224.47;;;22.41;61.93
74680;BME280;63211;48.548;2.704;2022-09-09T03:32:44;100221.72;;;22.41;62.18
74680;BME280;63211;48.548;2.704;2022-09-09T03:35:11;100216.25;;;22.41;62.04
74680;BME280;63211;48.548;2.704;2022-09-09T03:37:39;100222.81;;;22.40;61.84
74680;BME280;63211;48.548;2.704;2022-09-09T03:40:08;100228.56;;;22.38;62.17
74680;BME280;63211;48.548;2.704;2022-09-09T03:42:35;100223.09;;;22.38;62.00
74680;BME280;63211;48.548;2.704;2022-09-09T03:45:03;100226.91;;;22.37;62.07
74680;BME280;63211;48.548;2.704;2022-09-09T03:47:30;100223.34;;;22.37;61.85
74680;BME280;63211;48.548;2.704;2022-09-09T03:49:57;100231.56;;;22.37;61.83
74680;BME280;63211;48.548;2.704;2022-09-09T03:52:24;100226.09;;;22.37;61.64
74680;BME280;63211;48.548;2.704;2022-09-09T03:54:53;100223.59;;;22.35;62.06
74680;BME280;63211;48.548;2.704;2022-09-09T03:57:20;100221.13;;;22.34;61.72
74680;BME280;63211;48.548;2.704;2022-09-09T03:59:47;100221.94;;;22.34;62.03
74680;BME280;63211;48.548;2.704;2022-09-09T04:02:14;100226.59;;;22.34;61.80
74680;BME280;63211;48.548;2.704;2022-09-09T04:04:40;100218.63;;;22.32;61.86
74680;BME280;63211;48.548;2.704;2022-09-09T04:07:07;100215.06;;;22.32;61.73
74680;BME280;63211;48.548;2.704;2022-09-09T04:09:33;100216.97;;;22.31;61.91
74680;BME280;63211;48.548;2.704;2022-09-09T04:12:02;100227.13;;;22.31;61.52
74680;BME280;63211;48.548;2.704;2022-09-09T04:14:29;100225.47;;;22.29;61.66
74680;BME280;63211;48.548;2.704;2022-09-09T04:16:56;100220.00;;;22.29;61.87
74680;BME280;63211;48.548;2.704;2022-09-09T04:19:24;100223.56;;;22.30;61.73
74680;BME280;63211;48.548;2.704;2022-09-09T04:21:51;100219.44;;;22.27;61.73
74680;BME280;63211;48.548;2.704;2022-09-09T04:24:18;100232.31;;;22.27;61.82
74680;BME280;63211;48.548;2.704;2022-09-09T04:26:45;100222.16;;;22.27;62.05
74680;BME280;63211;48.548;2.704;2022-09-09T04:29:13;100226.25;;;22.25;61.92
74680;BME280;63211;48.548;2.704;2022-09-09T04:31:40;100234.22;;;22.26;61.87
74680;BME280;63211;48.548;2.704;2022-09-09T04:34:07;100227.34;;;22.24;61.59
74680;BME280;63211;48.548;2.704;2022-09-09T04:36:34;100238.06;;;22.25;61.36
74680;BME280;63211;48.548;2.704;2022-09-09T04:39:01;100242.72;;;22.25;61.30
74680;BME280;63211;48.548;2.704;2022-09-09T04:41:27;100235.56;;;22.24;61.34
74680;BME280;63211;48.548;2.704;2022-09-09T04:43:55;100233.94;;;22.23;61.43
74680;BME280;63211;48.548;2.704;2022-09-09T04:46:23;100236.94;;;22.21;61.87
74680;BME280;63211;48.548;2.704;2022-09-09T04:48:50;100231.47;;;22.21;61.80
74680;BME280;63211;48.548;2.704;2022-09-09T04:51:18;100237.53;;;22.23;61.73
74680;BME280;63211;48.548;2.704;2022-09-09T04:53:44;100233.94;;;22.23;61.44
74680;BME280;63211;48.548;2.704;2022-09-09T04:56:13;100235.84;;;22.22;60.53
74680;BME280;63211;48.548;2.704;2022-09-09T04:58:41;100237.78;;;22.22;60.90
74680;BME280;63211;48.548;2.704;2022-09-09T05:01:09;100228.72;;;22.21;60.74
74680;BME280;63211;48.548;2.704;2022-09-09T05:03:38;100225.97;;;22.21;60.66
74680;BME280;63211;48.548;2.704;2022-09-09T05:06:06;100230.38;;;22.22;60.60
74680;BME280;63211;48.548;2.704;2022-09-09T05:08:34;100227.06;;;22.20;60.17
74680;BME280;63211;48.548;2.704;2022-09-09T05:11:00;100236.13;;;22.21;60.37
74680;BME280;63211;48.548;2.704;2022-09-09T05:13:27;100233.06;;;22.17;59.96
74680;BME280;63211;48.548;2.704;2022-09-09T05:15:56;100230.06;;;22.19;61.19
74680;BME280;63211;48.548;2.704;2022-09-09T05:18:23;100232.56;;;22.20;61.56
74680;BME280;63211;48.548;2.704;2022-09-09T05:20:51;100232.28;;;22.22;60.65
74680;BME280;63211;48.548;2.704;2022-09-09T05:23:17;100238.88;;;22.21;61.16
74680;BME280;63211;48.548;2.704;2022-09-09T05:25:54;100232.56;;;22.20;61.24
74680;BME280;63211;48.548;2.704;2022-09-09T05:28:22;100232.56;;;22.20;61.23
74680;BME280;63211;48.548;2.704;2022-09-09T05:30:55;100228.16;;;22.19;60.97
74680;BME280;63211;48.548;2.704;2022-09-09T05:33:23;100235.56;;;22.19;60.82
74680;BME280;63211;48.548;2.704;2022-09-09T05:35:56;100239.38;;;22.18;60.91
74680;BME280;63211;48.548;2.704;2022-09-09T05:38:23;100251.19;;;22.18;60.88
74680;BME280;63211;48.548;2.704;2022-09-09T05:40:50;100249.53;;;22.17;60.51
74680;BME280;63211;48.548;2.704;2022-09-09T05:43:17;100245.97;;;22.17;60.28
74680;BME280;63211;48.548;2.704;2022-09-09T05:45:45;100248.97;;;22.15;61.31
74680;BME280;63211;48.548;2.704;2022-09-09T05:48:12;100245.38;;;22.15;61.82
74680;BME280;63211;48.548;2.704;2022-09-09T05:50:40;100246.22;;;22.15;61.90
74680;BME280;63211;48.548;2.704;2022-09-09T05:53:08;100244.88;;;22.18;61.65
74680;BME280;63211;48.548;2.704;2022-09-09T05:55:35;100252.84;;;22.19;62.04
74680;BME280;63211;48.548;2.704;2022-09-09T05:58:02;100250.91;;;22.20;62.73
74680;BME280;63211;48.548;2.704;2022-09-09T06:00:29;100255.06;;;22.22;62.30
74680;BME280;63211;48.548;2.704;2022-09-09T06:02:56;100254.22;;;22.22;62.42
74680;BME280;63211;48.548;2.704;2022-09-09T06:05:23;100254.22;;;22.22;62.87
74680;BME280;63211;48.548;2.704;2022-09-09T06:07:53;100246.00;;;22.22;62.34
74680;BME280;63211;48.548;2.704;2022-09-09T06:10:21;100247.91;;;22.21;62.14
74680;BME280;63211;48.548;2.704;2022-09-09T06:12:48;100249.84;;;22.21;61.33
74680;BME280;63211;48.548;2.704;2022-09-09T06:15:15;100254.50;;;22.20;61.75
74680;BME280;63211;48.548;2.704;2022-09-09T06:17:42;100254.75;;;22.19;61.27
74680;BME280;63211;48.548;2.704;2022-09-09T06:20:10;100256.09;;;22.16;60.96
74680;BME280;63211;48.548;2.704;2022-09-09T06:22:39;100255.28;;;22.16;61.48
74680;BME280;63211;48.548;2.704;2022-09-09T06:25:07;100255.53;;;22.14;60.71
74680;BME280;63211;48.548;2.704;2022-09-09T06:27:35;100254.44;;;22.15;60.70
74680;BME280;63211;48.548;2.704;2022-09-09T06:30:02;100260.19;;;22.14;60.49
74680;BME280;63211;48.548;2.704;2022-09-09T06:32:29;100258.31;;;22.19;62.61
74680;BME280;63211;48.548;2.704;2022-09-09T06:34:56;100255.31;;;22.21;62.25
74680;BME280;63211;48.548;2.704;2022-09-09T06:37:23;100271.78;;;22.26;61.15
74680;BME280;63211;48.548;2.704;2022-09-09T06:39:52;100265.22;;;22.27;61.65
74680;BME280;63211;48.548;2.704;2022-09-09T06:42:20;100272.34;;;22.28;61.72
74680;BME280;63211;48.548;2.704;2022-09-09T06:44:47;100266.09;;;22.33;61.55
74680;BME280;63211;48.548;2.704;2022-09-09T06:47:14;100264.44;;;22.32;61.67
74680;BME280;63211;48.548;2.704;2022-09-09T06:49:41;100267.22;;;22.37;61.30
74680;BME280;63211;48.548;2.704;2022-09-09T06:52:08;100267.22;;;22.37;60.78
74680;BME280;63211;48.548;2.704;2022-09-09T06:54:35;100265.31;;;22.37;61.66
74680;BME280;63211;48.548;2.704;2022-09-09T06:57:02;100261.22;;;22.40;61.35
74680;BME280;63211;48.548;2.704;2022-09-09T06:59:32;100266.97;;;22.38;60.73
74680;BME280;63211;48.548;2.704;2022-09-09T07:02:00;100278.00;;;22.43;61.45
74680;BME280;63211;48.548;2.704;2022-09-09T07:04:26;100276.06;;;22.44;60.84
74680;BME280;63211;48.548;2.704;2022-09-09T07:06:53;100268.38;;;22.46;61.80
74680;BME280;63211;48.548;2.704;2022-09-09T07:09:20;100271.66;;;22.43;60.45
74680;BME280;63211;48.548;2.704;2022-09-09T07:11:49;100265.38;;;22.47;60.53
74680;BME280;63211;48.548;2.704;2022-09-09T07:14:16;100273.34;;;22.49;60.86
74680;BME280;63211;48.548;2.704;2022-09-09T07:16:43;100273.09;;;22.50;60.93
74680;BME280;63211;48.548;2.704;2022-09-09T07:19:12;100275.81;;;22.50;61.27
74680;BME280;63211;48.548;2.704;2022-09-09T07:21:39;100268.41;;;22.51;61.36
74680;BME280;63211;48.548;2.704;2022-09-09T07:24:06;100273.38;;;22.54;60.98
74680;BME280;63211;48.548;2.704;2022-09-09T07:26:35;100265.72;;;22.56;60.65
74680;BME280;63211;48.548;2.704;2022-09-09T07:29:02;100265.72;;;22.56;61.22
74680;BME280;63211;48.548;2.704;2022-09-09T07:31:30;100261.06;;;22.56;60.80
74680;BME280;63211;48.548;2.704;2022-09-09T07:33:57;100270.69;;;22.59;61.25
74680;BME280;63211;48.548;2.704;2022-09-09T07:36:27;100263.84;;;22.61;60.92
74680;BME280;63211;48.548;2.704;2022-09-09T07:38:56;100263.84;;;22.61;60.88
74680;BME280;63211;48.548;2.704;2022-09-09T07:43:51;100255.63;;;22.61;61.16
74680;BME280;63211;48.548;2.704;2022-09-09T07:46:20;100268.81;;;22.65;61.13
74680;BME280;63211;48.548;2.704;2022-09-09T07:48:49;100263.03;;;22.66;61.12
74680;BME280;63211;48.548;2.704;2022-09-09T07:51:19;100261.09;;;22.67;60.89
74680;BME280;63211;48.548;2.704;2022-09-09T07:53:52;100249.88;;;22.63;61.00
74680;BME280;63211;48.548;2.704;2022-09-09T07:56:19;100263.84;;;22.67;61.02
74680;BME280;63211;48.548;2.704;2022-09-09T07:58:49;100268.50;;;22.66;61.45
74680;BME280;63211;48.548;2.704;2022-09-09T08:01:18;100276.75;;;22.66;60.60
74680;BME280;63211;48.548;2.704;2022-09-09T08:03:46;100277.88;;;22.65;60.70
74680;BME280;63211;48.548;2.704;2022-09-09T08:06:13;100268.81;;;22.65;60.42
74680;BME280;63211;48.548;2.704;2022-09-09T08:08:40;100285.28;;;22.65;60.40
74680;BME280;63211;48.548;2.704;2022-09-09T08:11:12;100288.00;;;22.65;60.63
74680;BME280;63211;48.548;2.704;2022-09-09T08:13:41;100292.94;;;22.62;60.38
74680;BME280;63211;48.548;2.704;2022-09-09T08:16:09;100300.91;;;22.64;60.25
74680;BME280;63211;48.548;2.704;2022-09-09T08:18:36;100302.00;;;22.63;60.60
74680;BME280;63211;48.548;2.704;2022-09-09T08:21:11;100299.00;;;22.65;60.53
74680;BME280;63211;48.548;2.704;2022-09-09T08:23:39;100317.91;;;22.66;61.00
74680;BME280;63211;48.548;2.704;2022-09-09T08:26:09;100312.16;;;22.68;61.29
74680;BME280;63211;48.548;2.704;2022-09-09T08:28:37;100309.97;;;22.70;60.58
74680;BME280;63211;48.548;2.704;2022-09-09T08:31:06;100306.16;;;22.71;61.18
74680;BME280;63211;48.548;2.704;2022-09-09T08:33:33;100314.94;;;22.73;60.57
74680;BME280;63211;48.548;2.704;2022-09-09T08:36:01;100315.25;;;22.76;61.33
74680;BME280;63211;48.548;2.704;2022-09-09T08:38:28;100313.03;;;22.73;60.87
74680;BME280;63211;48.548;2.704;2022-09-09T08:41:03;100318.25;;;22.75;60.96
74680;BME280;63211;48.548;2.704;2022-09-09T08:43:33;100325.66;;;22.74;61.12
74680;BME280;63211;48.548;2.704;2022-09-09T08:46:06;100324.28;;;22.72;61.23
74680;BME280;63211;48.548;2.704;2022-09-09T08:48:46;100323.44;;;22.71;60.89
74680;BME280;63211;48.548;2.704;2022-09-09T08:51:18;100310.81;;;22.65;61.22
74680;BME280;63211;48.548;2.704;2022-09-09T08:53:48;100324.78;;;22.69;61.39
74680;BME280;63211;48.548;2.704;2022-09-09T08:56:18;100317.13;;;22.71;61.13
74680;BME280;63211;48.548;2.704;2022-09-09T08:58:49;100326.97;;;22.67;61.03
74680;BME280;63211;48.548;2.704;2022-09-09T09:01:34;100324.53;;;22.70;61.16
74680;BME280;63211;48.548;2.704;2022-09-09T09:04:07;100322.88;;;22.64;60.91
74680;BME280;63211;48.548;2.704;2022-09-09T09:06:48;100328.38;;;22.69;61.08
74680;BME280;63211;48.548;2.704;2022-09-09T09:09:21;100334.13;;;22.68;61.49
74680;BME280;63211;48.548;2.704;2022-09-09T09:11:52;100334.13;;;22.68;60.69
74680;BME280;63211;48.548;2.704;2022-09-09T09:14:22;100343.44;;;22.67;61.42
74680;BME280;63211;48.548;2.704;2022-09-09T09:16:52;100345.34;;;22.66;61.14
74680;BME280;63211;48.548;2.704;2022-09-09T09:19:20;100341.53;;;22.67;61.26
74680;BME280;63211;48.548;2.704;2022-09-09T09:21:50;100346.19;;;22.67;61.08
74680;BME280;63211;48.548;2.704;2022-09-09T09:24:22;100347.00;;;22.67;61.32
74680;BME280;63211;48.548;2.704;2022-09-09T09:26:50;100357.16;;;22.67;60.83
74680;BME280;63211;48.548;2.704;2022-09-09T09:29:19;100350.84;;;22.66;61.18
74680;BME280;63211;48.548;2.704;2022-09-09T09:31:50;100348.94;;;22.67;60.84
74680;BME280;63211;48.548;2.704;2022-09-09T09:34:19;100352.50;;;22.67;61.11
74680;BME280;63211;48.548;2.704;2022-09-09T09:36:53;100346.19;;;22.67;61.11
74680;BME280;63211;48.548;2.704;2022-09-09T09:39:25;100354.69;;;22.65;61.05
74680;BME280;63211;48.548;2.704;2022-09-09T09:41:53;100348.09;;;22.66;60.69
74680;BME280;63211;48.548;2.704;2022-09-09T09:44:23;100352.75;;;22.66;60.70
74680;BME280;63211;48.548;2.704;2022-09-09T09:46:52;100356.63;;;22.65;61.32
74680;BME280;63211;48.548;2.704;2022-09-09T09:49:19;100370.06;;;22.66;60.85
74680;BME280;63211;48.548;2.704;2022-09-09T09:51:46;100362.38;;;22.63;60.64
74680;BME280;63211;48.548;2.704;2022-09-09T09:54:22;100361.28;;;22.64;60.72
74680;BME280;63211;48.548;2.704;2022-09-09T09:56:49;100364.84;;;22.65;60.38
74680;BME280;63211;48.548;2.704;2022-09-09T09:59:21;100373.91;;;22.65;60.48
74680;BME280;63211;48.548;2.704;2022-09-09T10:01:48;100364.84;;;22.65;60.66
74680;BME280;63211;48.548;2.704;2022-09-09T10:04:18;100373.91;;;22.65;60.48
74680;BME280;63211;48.548;2.704;2022-09-09T10:06:46;100379.41;;;22.65;60.90
74680;BME280;63211;48.548;2.704;2022-09-09T10:09:22;100382.94;;;22.66;60.55
74680;BME280;63211;48.548;2.704;2022-09-09T10:11:55;100381.31;;;22.65;60.69
74680;BME280;63211;48.548;2.704;2022-09-09T10:14:34;100386.25;;;22.62;60.52
74680;BME280;63211;48.548;2.704;2022-09-09T10:17:14;100389.81;;;22.63;60.47
74680;BME280;63211;48.548;2.704;2022-09-09T10:19:54;100401.63;;;22.63;60.84
74680;BME280;63211;48.548;2.704;2022-09-09T10:22:26;100395.28;;;22.63;60.82
74680;BME280;63211;48.548;2.704;2022-09-09T10:25:18;100397.22;;;22.62;60.97
74680;BME280;63211;48.548;2.704;2022-09-09T10:28:00;100390.06;;;22.61;60.43
74680;BME280;63211;48.548;2.704;2022-09-09T10:30:38;100395.28;;;22.63;60.35
74680;BME280;63211;48.548;2.704;2022-09-09T10:33:10;100397.22;;;22.62;60.87
74680;BME280;63211;48.548;2.704;2022-09-09T10:35:47;100406.28;;;22.63;60.79
74680;BME280;63211;48.548;2.704;2022-09-09T10:38:17;100408.19;;;22.62;60.81
74680;BME280;63211;48.548;2.704;2022-09-09T10:41:07;100412.59;;;22.63;60.43
74680;BME280;63211;48.548;2.704;2022-09-09T10:44:15;100409.28;;;22.67;60.46
74680;BME280;63211;48.548;2.704;2022-09-09T10:46:52;100407.69;;;22.71;60.39
74680;BME280;63211;48.548;2.704;2022-09-09T10:49:32;100404.94;;;22.71;60.75
74680;BME280;63211;48.548;2.704;2022-09-09T10:52:09;100403.84;;;22.72;60.51
74680;BME280;63211;48.548;2.704;2022-09-09T10:54:51;100404.44;;;22.74;60.37
74680;BME280;63211;48.548;2.704;2022-09-09T10:57:27;100405.25;;;22.74;60.61
74680;BME280;63211;48.548;2.704;2022-09-09T10:59:59;100409.09;;;22.73;59.71
74680;BME280;63211;48.548;2.704;2022-09-09T11:02:31;100398.94;;;22.74;59.95
74680;BME280;63211;48.548;2.704;2022-09-09T11:05:03;100408.00;;;22.74;60.23
74680;BME280;63211;48.548;2.704;2022-09-09T11:07:38;100415.16;;;22.75;60.77
74680;BME280;63211;48.548;2.704;2022-09-09T11:10:16;100402.50;;;22.74;60.11
74680;BME280;63211;48.548;2.704;2022-09-09T11:12:47;100403.34;;;22.75;59.97
74680;BME280;63211;48.548;2.704;2022-09-09T11:15:20;100394.03;;;22.76;59.88
74680;BME280;63211;48.548;2.704;2022-09-09T11:17:50;100394.84;;;22.76;60.24
74680;BME280;63211;48.548;2.704;2022-09-09T11:20:20;100382.22;;;22.75;60.14
74680;BME280;63211;48.548;2.704;2022-09-09T11:22:51;100378.38;;;22.76;60.04
74680;BME280;63211;48.548;2.704;2022-09-09T11:25:24;100381.13;;;22.76;60.18
74680;BME280;63211;48.548;2.704;2022-09-09T11:28:15;100368.50;;;22.75;60.12
74680;BME280;63211;48.548;2.704;2022-09-09T11:30:53;100374.56;;;22.77;60.20
74680;BME280;63211;48.548;2.704;2022-09-09T11:33:42;100371.84;;;22.77;60.71
74680;BME280;63211;48.548;2.704;2022-09-09T11:36:43;100378.16;;;22.78;60.17
74680;BME280;63211;48.548;2.704;2022-09-09T11:39:42;100366.09;;;22.79;60.23
74680;BME280;63211;48.548;2.704;2022-09-09T11:42:18;100369.66;;;22.79;60.54
74680;BME280;63211;48.548;2.704;2022-09-09T11:44:46;100372.41;;;22.79;60.07
74680;BME280;63211;48.548;2.704;2022-09-09T11:47:19;100367.75;;;22.80;60.20
74680;BME280;63211;48.548;2.704;2022-09-09T11:49:48;100369.41;;;22.81;59.93
74680;BME280;63211;48.548;2.704;2022-09-09T11:52:21;100365.00;;;22.80;59.92
74680;BME280;63211;48.548;2.704;2022-09-09T11:54:54;100359.50;;;22.80;59.97
74680;BME280;63211;48.548;2.704;2022-09-09T11:57:26;100365.81;;;22.80;60.34
74680;BME280;63211;48.548;2.704;2022-09-09T11:59:57;100360.59;;;22.79;60.07
74680;BME280;63211;48.548;2.704;2022-09-09T12:02:26;100363.34;;;22.79;60.41
74680;BME280;63211;48.548;2.704;2022-09-09T12:04:59;100366.09;;;22.79;60.30
74680;BME280;63211;48.548;2.704;2022-09-09T12:07:35;100369.66;;;22.79;60.46
74680;BME280;63211;48.548;2.704;2022-09-09T12:10:20;100365.25;;;22.78;60.24
74680;BME280;63211;48.548;2.704;2022-09-09T12:12:48;100370.75;;;22.78;60.41
74680;BME280;63211;48.548;2.704;2022-09-09T12:15:24;100362.50;;;22.78;60.28
74680;BME280;63211;48.548;2.704;2022-09-09T12:17:55;100372.41;;;22.79;60.17
74680;BME280;63211;48.548;2.704;2022-09-09T12:20:23;100372.66;;;22.78;60.23
74680;BME280;63211;48.548;2.704;2022-09-09T12:22:59;100368.00;;;22.78;60.07
74680;BME280;63211;48.548;2.704;2022-09-09T12:25:38;100369.66;;;22.79;60.04
74680;BME280;63211;48.548;2.704;2022-09-09T12:28:15;100366.09;;;22.79;59.86
74680;BME280;63211;48.548;2.704;2022-09-09T12:30:49;100377.06;;;22.79;59.88
74680;BME280;63211;48.548;2.704;2022-09-09T12:33:20;100368.00;;;22.78;60.18
74680;BME280;63211;48.548;2.704;2022-09-09T12:35:52;100367.16;;;22.78;60.18
74680;BME280;63211;48.548;2.704;2022-09-09T12:38:26;100374.31;;;22.79;59.89
74680;BME280;63211;48.548;2.704;2022-09-09T12:40:58;100370.75;;;22.78;60.06
74680;BME280;63211;48.548;2.704;2022-09-09T12:43:27;100373.50;;;22.78;60.29
74680;BME280;63211;48.548;2.704;2022-09-09T12:45:56;100371.56;;;22.79;60.06
74680;BME280;63211;48.548;2.704;2022-09-09T12:48:30;100377.88;;;22.79;60.25
74680;BME280;63211;48.548;2.704;2022-09-09T12:50:58;100363.59;;;22.77;59.93
74680;BME280;63211;48.548;2.704;2022-09-09T12:53:27;100373.50;;;22.78;59.99
74680;BME280;63211;48.548;2.704;2022-09-09T12:55:57;100366.91;;;22.79;59.83
74680;BME280;63211;48.548;2.704;2022-09-09T12:58:25;100358.69;;;22.79;59.83
74680;BME280;63211;48.548;2.704;2022-09-09T13:00:54;100365.81;;;22.80;59.76
74680;BME280;63211;48.548;2.704;2022-09-09T13:03:23;100366.09;;;22.79;60.19
74680;BME280;63211;48.548;2.704;2022-09-09T13:05:51;100355.94;;;22.79;60.16
74680;BME280;63211;48.548;2.704;2022-09-09T13:08:18;100355.94;;;22.79;60.15
74680;BME280;63211;48.548;2.704;2022-09-09T13:10:48;100351.53;;;22.78;60.16
74680;BME280;63211;48.548;2.704;2022-09-09T13:13:20;100357.84;;;22.79;59.73
74680;BME280;63211;48.548;2.704;2022-09-09T13:15:49;100353.19;;;22.79;59.94
74680;BME280;63211;48.548;2.704;2022-09-09T13:18:20;100350.69;;;22.78;59.99